Terminal Aerodrome Forecast
Issued by NWS Milwaukee/Sullivan, WI

Home | Current Version | Previous Version | Text Only | Print | Product List | Glossary On
Versions: 1 2 3 4 5 6 7 8 9 10 11 12 13 14 15 16 17 18 19 20 21 22 23 24 25 26 27 28 29 30 31 32 33 34 35 36 37 38 39 40 41 42 43 44 45 46 47 48 49 50
000
FTUS43 KMKX 241120
TAFMKE
TAF
KMKE 241120Z 2412/2518 23007KT P6SM SCT100 BKN250 WS020/24045KT
     FM241400 24009KT P6SM SCT100 BKN250
     FM242100 01010KT P6SM SCT020 BKN090
     FM242300 02010KT P6SM VCSH SCT020 OVC035
     FM250200 03009KT 2SM -RA OVC015
     FM250500 03010KT 1 1/2SM -RA OVC008
     FM251500 06011KT 1SM RA OVC003=

USA.gov is the U.S. government's official web portal to all federal, state and local government web resources and services.